createdAt,value
2022-12-31T00:02:55.526Z,9.24
2022-12-31T00:05:57.902Z,9.33
2022-12-31T00:09:02.452Z,9.36
2022-12-31T00:12:04.655Z,9.34
2022-12-31T00:15:07.424Z,9.38
2022-12-31T00:18:10.806Z,9.38
2022-12-31T00:21:15.401Z,9.37
2022-12-31T00:24:17.561Z,9.42
2022-12-31T00:27:19.685Z,9.39
2022-12-31T00:30:22.097Z,9.43
2022-12-31T00:33:24.380Z,9.49
2022-12-31T00:36:35.643Z,9.47
2022-12-31T00:39:37.722Z,9.47
2022-12-31T00:42:39.855Z,9.50
2022-12-31T00:45:42.690Z,9.53
2022-12-31T00:48:45.063Z,9.51
2022-12-31T00:51:47.489Z,9.52
2022-12-31T00:54:49.626Z,9.53
2022-12-31T00:57:51.689Z,9.52
2022-12-31T01:00:53.919Z,9.51
2022-12-31T01:04:00.086Z,9.53
2022-12-31T01:07:02.276Z,9.45
2022-12-31T01:10:06.520Z,9.45
2022-12-31T01:13:08.897Z,9.45
2022-12-31T01:16:13.433Z,9.47
2022-12-31T01:19:19.351Z,9.45
2022-12-31T01:22:21.523Z,9.43
2022-12-31T01:25:23.617Z,9.46
2022-12-31T01:28:26.073Z,9.48
2022-12-31T01:31:28.666Z,9.51
2022-12-31T01:34:30.818Z,9.59
2022-12-31T01:37:32.895Z,9.60
2022-12-31T01:40:39.497Z,9.61
2022-12-31T01:43:54.333Z,9.59
2022-12-31T01:47:02.630Z,9.60
2022-12-31T01:50:10.444Z,9.61
2022-12-31T01:53:13.325Z,9.60
2022-12-31T01:56:16.062Z,9.59
2022-12-31T01:59:19.956Z,9.60
2022-12-31T02:02:22.884Z,9.62
2022-12-31T02:05:33.501Z,9.64
2022-12-31T02:08:41.804Z,9.67
2022-12-31T02:11:44.325Z,9.77
2022-12-31T02:14:52.390Z,9.73
2022-12-31T02:18:06.598Z,9.76
2022-12-31T02:21:20.684Z,9.77
2022-12-31T02:24:30.574Z,9.83
2022-12-31T02:27:59.197Z,9.91
2022-12-31T02:31:11.461Z,9.93
2022-12-31T02:34:33.437Z,9.99
2022-12-31T02:37:37.658Z,9.99
2022-12-31T02:40:40.338Z,9.99
2022-12-31T02:43:48.552Z,9.95
2022-12-31T02:47:10.413Z,9.91
2022-12-31T02:50:42.025Z,9.97
2022-12-31T02:53:50.322Z,9.97
2022-12-31T02:57:13.081Z,9.96
2022-12-31T03:00:35.491Z,10.01
2022-12-31T03:03:38.361Z,9.99
2022-12-31T03:06:42.099Z,9.97
2022-12-31T03:09:44.243Z,10.01
2022-12-31T03:12:49.697Z,10.01
2022-12-31T03:15:51.849Z,10.04
2022-12-31T03:19:12.649Z,10.08
2022-12-31T03:22:30.006Z,10.06
2022-12-31T03:25:41.092Z,10.00
2022-12-31T03:28:48.058Z,10.05
2022-12-31T03:31:50.256Z,9.98
2022-12-31T03:34:52.327Z,9.93
2022-12-31T03:37:54.779Z,10.00
2022-12-31T03:40:57.004Z,10.04
2022-12-31T03:43:59.079Z,10.08
2022-12-31T03:47:01.227Z,10.12
2022-12-31T03:50:05.289Z,10.16
2022-12-31T03:53:07.541Z,10.18
2022-12-31T03:56:09.662Z,10.21
2022-12-31T03:59:11.861Z,10.18
2022-12-31T04:02:14.171Z,10.19
2022-12-31T04:05:17.980Z,10.17
2022-12-31T04:08:20.168Z,10.20
2022-12-31T04:11:22.402Z,10.26
2022-12-31T04:14:24.654Z,10.24
2022-12-31T04:17:26.740Z,10.24
2022-12-31T04:20:29.121Z,10.28
2022-12-31T04:23:31.624Z,10.31
2022-12-31T04:26:34.291Z,10.29
2022-12-31T04:29:36.752Z,10.31
2022-12-31T04:32:39.115Z,10.34
2022-12-31T04:35:41.192Z,10.36
2022-12-31T04:38:43.308Z,10.34
2022-12-31T04:41:45.379Z,10.35
2022-12-31T04:44:47.502Z,10.33
2022-12-31T04:47:49.585Z,10.30
2022-12-31T04:50:51.886Z,10.29
2022-12-31T04:53:54.810Z,10.24
2022-12-31T04:56:56.951Z,10.23
2022-12-31T04:59:59.074Z,10.17
2022-12-31T05:03:01.162Z,10.21
2022-12-31T05:06:09.763Z,10.19
2022-12-31T05:09:11.840Z,10.22
2022-12-31T05:12:13.938Z,10.14
2022-12-31T05:15:16.018Z,10.12
2022-12-31T05:18:19.121Z,10.06
2022-12-31T05:21:22.292Z,10.00
2022-12-31T05:24:24.396Z,9.94
2022-12-31T05:27:28.106Z,9.93
2022-12-31T05:30:30.451Z,9.83
2022-12-31T05:33:32.586Z,9.83
2022-12-31T05:36:34.631Z,9.72
2022-12-31T05:39:36.757Z,9.61
2022-12-31T05:42:39.817Z,9.56
2022-12-31T05:45:41.870Z,9.51
2022-12-31T05:48:43.979Z,9.44
2022-12-31T05:51:46.149Z,9.41
2022-12-31T05:54:48.207Z,9.31
2022-12-31T05:57:50.488Z,9.19
2022-12-31T06:00:53.231Z,9.14
2022-12-31T06:03:55.828Z,9.05
2022-12-31T06:06:58.044Z,8.99
2022-12-31T06:10:00.329Z,8.95
2022-12-31T06:13:02.673Z,8.92
2022-12-31T06:16:06.953Z,8.85
2022-12-31T06:19:09.838Z,8.88
2022-12-31T06:22:11.882Z,8.80
2022-12-31T06:25:14.111Z,8.80
2022-12-31T06:28:20.425Z,8.75
2022-12-31T06:31:22.992Z,8.66
2022-12-31T06:34:25.220Z,8.59
2022-12-31T06:37:27.361Z,8.57
2022-12-31T06:40:29.579Z,8.55
2022-12-31T06:43:32.137Z,8.54
2022-12-31T06:46:34.304Z,8.55
2022-12-31T06:49:36.460Z,8.53
2022-12-31T06:52:38.857Z,8.47
2022-12-31T06:55:41.965Z,8.47
2022-12-31T06:58:44.753Z,8.46
2022-12-31T07:02:18.651Z,8.43
2022-12-31T07:05:32.926Z,8.42
2022-12-31T07:08:51.838Z,8.40
2022-12-31T07:12:06.707Z,8.39
2022-12-31T07:15:26.884Z,8.43
2022-12-31T07:18:43.953Z,8.48
2022-12-31T07:21:46.434Z,8.56
2022-12-31T07:24:49.105Z,8.64
2022-12-31T07:28:20.434Z,8.72
2022-12-31T07:31:22.546Z,8.79
2022-12-31T07:34:55.105Z,8.93
2022-12-31T07:38:12.917Z,9.04
2022-12-31T07:41:45.716Z,9.22
2022-12-31T07:44:50.468Z,9.37
2022-12-31T07:47:55.298Z,9.51
2022-12-31T07:51:01.349Z,9.64
2022-12-31T07:54:06.408Z,9.74
2022-12-31T07:57:14.389Z,9.93
2022-12-31T08:00:17.147Z,10.09
2022-12-31T08:03:36.078Z,10.22
2022-12-31T08:06:53.631Z,10.35
2022-12-31T08:10:17.304Z,10.48
2022-12-31T08:13:21.166Z,10.58
2022-12-31T08:16:23.896Z,10.66
2022-12-31T08:19:32.242Z,10.77
2022-12-31T08:23:15.535Z,10.82
2022-12-31T08:26:32.537Z,10.88
2022-12-31T08:30:17.621Z,10.88
2022-12-31T08:33:28.664Z,10.88
2022-12-31T08:36:41.579Z,10.98
2022-12-31T08:40:24.207Z,11.07
2022-12-31T08:43:51.059Z,11.17
2022-12-31T08:47:02.699Z,11.29
2022-12-31T08:50:05.649Z,11.30
2022-12-31T08:53:08.225Z,11.39
2022-12-31T08:56:43.744Z,11.44
2022-12-31T09:00:07.864Z,11.52
2022-12-31T09:03:13.275Z,11.64
2022-12-31T09:06:41.256Z,11.71
2022-12-31T09:09:59.804Z,11.77
2022-12-31T09:13:09.697Z,11.76
2022-12-31T09:16:21.418Z,11.75
2022-12-31T09:19:23.616Z,11.73
2022-12-31T09:22:26.321Z,11.74
2022-12-31T09:25:29.704Z,11.74
2022-12-31T09:28:47.629Z,11.77
2022-12-31T09:31:52.599Z,11.89
2022-12-31T09:35:13.377Z,11.97
2022-12-31T09:38:31.008Z,12.05
2022-12-31T09:42:18.068Z,12.22
2022-12-31T09:45:38.102Z,12.36
2022-12-31T09:49:12.507Z,12.47
2022-12-31T09:53:02.400Z,12.58
2022-12-31T09:56:15.887Z,12.84
2022-12-31T09:59:36.092Z,13.05
2022-12-31T10:02:58.710Z,13.36
2022-12-31T10:06:34.394Z,13.45
2022-12-31T10:09:42.824Z,13.70
2022-12-31T10:13:25.995Z,13.95
2022-12-31T10:16:49.828Z,14.33
2022-12-31T10:20:00.164Z,14.61
2022-12-31T10:23:26.694Z,15.05
2022-12-31T10:26:53.078Z,15.01
2022-12-31T10:30:13.458Z,14.76
2022-12-31T10:33:44.964Z,14.58
2022-12-31T10:36:58.931Z,14.43
2022-12-31T10:40:37.896Z,14.33
2022-12-31T10:44:17.113Z,14.31
2022-12-31T10:47:28.110Z,14.28
2022-12-31T10:51:09.250Z,14.16
2022-12-31T10:54:42.169Z,13.98
2022-12-31T10:58:04.070Z,14.04
2022-12-31T11:01:28.049Z,14.14
2022-12-31T11:05:00.588Z,14.32
2022-12-31T11:08:14.553Z,14.50
2022-12-31T11:11:22.425Z,14.66
2022-12-31T11:14:48.981Z,14.80
2022-12-31T11:17:53.655Z,15.02
2022-12-31T11:21:04.524Z,15.12
2022-12-31T11:24:38.247Z,14.92
2022-12-31T11:27:59.360Z,14.84
2022-12-31T11:31:20.989Z,14.59
2022-12-31T11:34:39.554Z,14.60
2022-12-31T11:37:50.614Z,14.57
2022-12-31T11:41:19.667Z,14.63
2022-12-31T11:44:21.657Z,14.62
2022-12-31T11:51:50.131Z,14.62
2022-12-31T11:55:38.387Z,14.72
2022-12-31T11:58:51.828Z,14.77
2022-12-31T12:02:12.841Z,14.91
2022-12-31T12:05:20.277Z,15.03
2022-12-31T12:08:22.786Z,15.02
2022-12-31T12:11:27.744Z,15.03
2022-12-31T12:14:32.840Z,15.16
2022-12-31T12:17:35.562Z,15.23
2022-12-31T12:20:41.805Z,15.26
2022-12-31T12:24:05.240Z,15.28
2022-12-31T12:27:22.108Z,15.20
2022-12-31T12:30:28.325Z,15.06
2022-12-31T12:33:42.145Z,14.96
2022-12-31T12:36:48.312Z,14.91
2022-12-31T12:40:21.587Z,14.92
2022-12-31T12:43:32.342Z,15.14
2022-12-31T12:46:52.737Z,15.34
2022-12-31T12:49:55.702Z,15.41
2022-12-31T12:52:59.492Z,15.63
2022-12-31T12:56:23.287Z,15.81
2022-12-31T12:59:34.477Z,15.87
2022-12-31T13:02:55.282Z,15.95
2022-12-31T13:06:44.964Z,15.91
2022-12-31T13:09:59.224Z,16.02
2022-12-31T13:13:26.219Z,16.23
2022-12-31T13:16:51.272Z,16.24
2022-12-31T13:20:12.955Z,16.19
2022-12-31T13:23:26.746Z,16.31
2022-12-31T13:27:03.375Z,16.10
2022-12-31T13:30:15.820Z,15.85
2022-12-31T13:33:25.794Z,15.74
2022-12-31T13:36:30.087Z,15.74
2022-12-31T13:39:38.940Z,15.72
2022-12-31T13:42:52.021Z,15.72
2022-12-31T13:46:20.480Z,15.65
2022-12-31T13:49:29.960Z,15.57
2022-12-31T13:52:38.328Z,15.53
2022-12-31T13:55:44.847Z,15.49
2022-12-31T13:58:53.340Z,15.47
2022-12-31T14:02:26.261Z,15.42
2022-12-31T14:05:34.219Z,15.32
2022-12-31T14:08:36.550Z,15.23
2022-12-31T14:12:06.620Z,15.13
2022-12-31T14:15:23.899Z,15.06
2022-12-31T14:18:45.047Z,15.14
2022-12-31T14:22:08.584Z,15.26
2022-12-31T14:25:29.346Z,15.28
2022-12-31T14:28:47.751Z,15.23
2022-12-31T14:31:49.892Z,15.18
2022-12-31T14:35:40.113Z,15.16
2022-12-31T14:39:04.001Z,15.20
2022-12-31T14:42:29.881Z,15.21
2022-12-31T14:46:04.193Z,15.13
2022-12-31T14:49:25.174Z,15.06
2022-12-31T14:52:35.342Z,15.01
2022-12-31T14:55:40.826Z,14.93
2022-12-31T14:58:43.806Z,14.92
2022-12-31T15:01:46.767Z,14.83
2022-12-31T15:04:49.027Z,14.72
2022-12-31T15:08:18.057Z,14.68
2022-12-31T15:11:42.027Z,14.67
2022-12-31T15:14:56.207Z,14.52
2022-12-31T15:18:19.503Z,14.45
2022-12-31T15:21:49.139Z,14.36
2022-12-31T15:24:51.456Z,14.31
2022-12-31T15:27:54.394Z,14.25
2022-12-31T15:31:03.741Z,14.21
2022-12-31T15:34:23.753Z,14.16
2022-12-31T15:37:33.110Z,14.17
2022-12-31T15:40:44.108Z,14.11
2022-12-31T15:43:49.297Z,14.04
2022-12-31T15:47:14.828Z,13.96
2022-12-31T15:50:22.864Z,13.85
2022-12-31T15:53:39.782Z,13.78
2022-12-31T15:56:49.255Z,13.70
2022-12-31T15:59:58.715Z,13.71
2022-12-31T16:03:01.218Z,13.59
2022-12-31T16:06:10.084Z,13.57
2022-12-31T16:09:25.241Z,13.54
2022-12-31T16:12:34.386Z,13.47
2022-12-31T16:15:39.314Z,13.47
2022-12-31T16:18:44.065Z,13.51
2022-12-31T16:21:46.231Z,13.45
2022-12-31T16:25:29.051Z,13.41
2022-12-31T16:28:20.406Z,13.33
2022-12-31T16:31:22.856Z,13.25
2022-12-31T16:34:27.536Z,13.21
2022-12-31T16:37:29.688Z,13.16
2022-12-31T16:40:32.112Z,13.17
2022-12-31T16:43:38.855Z,13.21
2022-12-31T16:46:41.222Z,13.13
2022-12-31T16:49:46.410Z,13.11
2022-12-31T16:52:59.698Z,13.15
2022-12-31T16:56:09.233Z,13.10
2022-12-31T16:59:34.954Z,13.07
2022-12-31T17:02:45.340Z,13.06
2022-12-31T17:06:06.325Z,13.15
2022-12-31T17:09:20.937Z,13.13
2022-12-31T17:12:24.977Z,13.18
2022-12-31T17:15:38.260Z,13.19
2022-12-31T17:18:44.115Z,13.14
2022-12-31T17:21:48.750Z,13.13
2022-12-31T17:24:51.809Z,13.14
2022-12-31T17:28:03.811Z,13.03
2022-12-31T17:31:28.262Z,13.02
2022-12-31T17:34:50.782Z,12.94
2022-12-31T17:37:52.988Z,12.89
2022-12-31T17:40:57.747Z,12.82
2022-12-31T17:43:59.978Z,12.74
2022-12-31T17:47:03.470Z,12.69
2022-12-31T17:50:09.817Z,12.67
2022-12-31T17:53:12.965Z,12.65
2022-12-31T17:56:18.776Z,12.59
2022-12-31T17:59:23.932Z,12.49
2022-12-31T18:02:26.372Z,12.45
2022-12-31T18:05:28.670Z,12.43
2022-12-31T18:08:30.895Z,12.39
2022-12-31T18:11:33.777Z,12.43
2022-12-31T18:14:36.077Z,12.44
2022-12-31T18:17:38.481Z,12.43
2022-12-31T18:20:40.594Z,12.36
2022-12-31T18:23:48.398Z,12.31
2022-12-31T18:26:51.213Z,12.29
2022-12-31T18:29:54.270Z,12.27
2022-12-31T18:32:58.792Z,12.23
2022-12-31T18:36:09.586Z,12.23
2022-12-31T18:39:12.369Z,12.19
2022-12-31T18:42:17.188Z,12.14
2022-12-31T18:45:20.997Z,12.10
2022-12-31T18:48:23.080Z,12.06
2022-12-31T18:51:31.276Z,12.04
2022-12-31T18:54:34.087Z,12.06
2022-12-31T18:57:36.198Z,12.05
2022-12-31T19:00:38.622Z,12.06
2022-12-31T19:03:40.833Z,12.08
2022-12-31T19:06:43.172Z,12.08
2022-12-31T19:09:46.806Z,12.06
2022-12-31T19:12:50.366Z,12.08
2022-12-31T19:15:53.502Z,12.11
2022-12-31T19:18:55.627Z,12.10
2022-12-31T19:21:57.945Z,12.07
2022-12-31T19:25:00.033Z,12.08
2022-12-31T19:28:03.813Z,12.05
2022-12-31T19:31:06.599Z,11.99
2022-12-31T19:34:08.784Z,11.95
2022-12-31T19:37:16.849Z,11.92
2022-12-31T19:40:22.746Z,11.93
2022-12-31T19:43:25.076Z,11.93
2022-12-31T19:46:27.908Z,11.90
2022-12-31T19:49:30.035Z,11.91
2022-12-31T19:52:32.121Z,11.85
2022-12-31T19:55:34.248Z,11.82
2022-12-31T19:58:36.387Z,11.79
2022-12-31T20:01:38.718Z,11.71
2022-12-31T20:04:41.144Z,11.72
2022-12-31T20:07:43.536Z,11.68
2022-12-31T20:10:46.318Z,11.63
2022-12-31T20:13:49.792Z,11.59
2022-12-31T20:16:52.745Z,11.57
2022-12-31T20:19:55.147Z,11.57
2022-12-31T20:22:58.320Z,11.48
2022-12-31T20:26:01.641Z,11.43
2022-12-31T20:29:03.811Z,11.38
2022-12-31T20:32:06.940Z,11.34
2022-12-31T20:35:09.259Z,11.36
2022-12-31T20:38:11.355Z,11.31
2022-12-31T20:41:15.794Z,11.25
2022-12-31T20:44:18.107Z,11.25
2022-12-31T20:47:20.447Z,11.22
2022-12-31T20:50:22.833Z,11.19
2022-12-31T20:53:24.966Z,11.14
2022-12-31T20:56:29.735Z,11.15
2022-12-31T20:59:32.024Z,11.16
2022-12-31T21:02:43.280Z,11.14
2022-12-31T21:05:53.762Z,11.17
2022-12-31T21:08:57.894Z,11.15
2022-12-31T21:12:19.497Z,11.14
2022-12-31T21:15:21.911Z,11.12
2022-12-31T21:18:24.068Z,11.13
2022-12-31T21:21:26.226Z,11.10
2022-12-31T21:24:28.385Z,11.12
2022-12-31T21:27:31.030Z,11.12
2022-12-31T21:30:33.752Z,11.09
2022-12-31T21:33:35.888Z,11.06
2022-12-31T21:36:38.073Z,11.05
2022-12-31T21:39:40.631Z,11.08
2022-12-31T21:42:42.991Z,11.23
2022-12-31T21:45:45.182Z,11.31
2022-12-31T21:48:47.478Z,11.40
2022-12-31T21:52:08.150Z,11.34
2022-12-31T21:55:30.623Z,11.30
2022-12-31T21:58:33.497Z,11.33
2022-12-31T22:01:54.139Z,11.28
2022-12-31T22:05:06.879Z,11.28
2022-12-31T22:08:14.850Z,11.18
2022-12-31T22:11:18.752Z,11.23
2022-12-31T22:14:20.957Z,11.29
2022-12-31T22:17:23.181Z,11.26
2022-12-31T22:20:28.006Z,11.36
2022-12-31T22:23:31.344Z,11.32
2022-12-31T22:26:33.559Z,11.31
2022-12-31T22:29:35.784Z,11.30
2022-12-31T22:32:38.059Z,11.26
2022-12-31T22:35:40.221Z,11.24
2022-12-31T22:38:42.781Z,11.21
2022-12-31T22:41:46.591Z,11.26
2022-12-31T22:44:48.657Z,11.25
2022-12-31T22:47:51.033Z,11.24
2022-12-31T22:50:57.553Z,11.21
2022-12-31T22:53:59.738Z,11.18
2022-12-31T22:57:01.892Z,11.17
2022-12-31T23:00:10.134Z,11.10
2022-12-31T23:03:12.989Z,11.08
2022-12-31T23:06:15.673Z,11.10
2022-12-31T23:09:36.755Z,11.10
2022-12-31T23:12:38.958Z,11.07
2022-12-31T23:16:03.672Z,11.06
2022-12-31T23:19:25.868Z,11.07
2022-12-31T23:22:46.496Z,10.99
2022-12-31T23:25:51.128Z,11.03
2022-12-31T23:28:54.557Z,11.03
2022-12-31T23:31:59.051Z,11.03
2022-12-31T23:35:09.341Z,11.00
2022-12-31T23:38:14.437Z,11.06
2022-12-31T23:41:21.135Z,11.07
2022-12-31T23:44:24.719Z,11.10
2022-12-31T23:47:28.647Z,11.12
2022-12-31T23:50:32.537Z,11.15
2022-12-31T23:53:39.142Z,11.29
2022-12-31T23:56:43.191Z,11.35
2022-12-31T23:59:46.800Z,11.40
